Time;durP1;ratioP1;P1;durP2;ratioP2;P2;SDS_P1;SDS_P2;PMS_P1;PMS_P2;Temp;Humidity;BMP_temperature;BMP_pressure;BME280_temperature;BME280_humidity;BME280_pressure;Samples;Min_cycle;Max_cycle;Signal;HPM_P1;HPM_P2
2023/05/31 00:01:06;;;;;;;2.33;2.13;;;24.90;53.20;;;;;;5074342;28;20876;-68
2023/05/31 00:03:35;;;;;;;2.33;2.13;;;24.90;53.20;;;;;;5075633;28;20045;-68
2023/05/31 00:06:02;;;;;;;1.98;1.85;;;24.90;53.20;;;;;;5075059;28;20045;-67
2023/05/31 00:08:29;;;;;;;3.38;2.58;;;24.90;53.20;;;;;;5075305;28;20052;-68
2023/05/31 00:10:57;;;;;;;2.20;1.92;;;24.80;53.10;;;;;;5075014;28;20052;-67
2023/05/31 00:13:24;;;;;;;3.97;1.67;;;24.90;53.30;;;;;;5076048;28;20420;-67
2023/05/31 00:15:51;;;;;;;2.17;1.98;;;24.80;53.20;;;;;;5075262;28;20102;-67
2023/05/31 00:18:18;;;;;;;2.15;2.03;;;24.80;53.20;;;;;;5075605;28;20110;-67
2023/05/31 00:20:46;;;;;;;2.60;2.40;;;24.80;53.20;;;;;;5074461;28;20525;-67
2023/05/31 00:23:13;;;;;;;2.50;2.30;;;24.90;53.20;;;;;;5075759;28;20459;-67
2023/05/31 00:25:40;;;;;;;2.65;1.92;;;24.80;53.20;;;;;;5074398;28;20131;-67
2023/05/31 00:28:07;;;;;;;2.38;2.17;;;24.80;53.20;;;;;;5074578;28;20052;-67
2023/05/31 00:30:34;;;;;;;2.17;2.00;;;24.80;53.20;;;;;;5075416;28;20048;-67
2023/05/31 00:33:02;;;;;;;2.53;2.00;;;24.80;53.20;;;;;;5075627;28;20389;-67
2023/05/31 00:35:29;;;;;;;2.28;2.08;;;24.80;53.20;;;;;;5075308;28;20052;-68
2023/05/31 00:37:56;;;;;;;2.28;1.75;;;24.80;53.20;;;;;;5074186;28;20048;-67
2023/05/31 00:40:23;;;;;;;2.25;2.05;;;24.80;53.20;;;;;;5075098;28;20080;-67
2023/05/31 00:42:50;;;;;;;2.45;1.98;;;24.80;53.20;;;;;;5074286;28;20439;-67
2023/05/31 00:45:17;;;;;;;2.35;2.15;;;24.80;53.20;;;;;;5074976;28;20083;-67
2023/05/31 00:47:45;;;;;;;2.15;1.95;;;24.80;53.20;;;;;;5074942;28;20063;-68
2023/05/31 00:50:12;;;;;;;2.53;2.33;;;24.80;53.70;;;;;;5074244;28;20484;-67
2023/05/31 00:52:40;;;;;;;2.80;2.10;;;24.80;53.10;;;;;;5074432;28;20238;-68
2023/05/31 00:55:08;;;;;;;2.55;2.35;;;24.80;53.10;;;;;;5074768;28;20086;-67
2023/05/31 00:57:36;;;;;;;2.80;1.98;;;24.80;53.10;;;;;;5073917;28;20048;-68
2023/05/31 01:00:04;;;;;;;2.17;1.92;;;24.80;53.10;;;;;;5074404;28;20161;-67
2023/05/31 01:02:32;;;;;;;2.53;1.80;;;24.80;53.10;;;;;;5074807;28;20053;-67
2023/05/31 01:05:03;;;;;;;2.22;2.13;;;24.80;53.10;;;;;;5073993;28;20098;-67
2023/05/31 01:07:30;;;;;;;2.22;1.90;;;24.80;53.10;;;;;;5074781;28;20459;-67
2023/05/31 01:09:58;;;;;;;2.25;2.05;;;24.80;53.10;;;;;;5073585;28;20132;-67
2023/05/31 01:12:52;;;;;;;2.05;1.92;;;24.80;53.10;;;;;;5074859;28;20055;-67
2023/05/31 01:15:24;;;;;;;2.20;2.00;;;24.80;53.10;;;;;;5073827;28;20048;-67
2023/05/31 01:18:12;;;;;;;2.00;1.90;;;24.80;53.10;;;;;;5073752;28;20055;-67
2023/05/31 01:20:43;;;;;;;2.13;1.90;;;24.80;53.10;;;;;;5073619;28;20110;-68
2023/05/31 01:23:51;;;;;;;1.85;1.67;;;24.80;53.10;;;;;;5074608;28;20455;-67
2023/05/31 01:26:45;;;;;;;1.90;1.80;;;24.80;53.10;;;;;;5072837;28;20049;-67
2023/05/31 01:29:17;;;;;;;2.85;2.08;;;24.80;53.00;;;;;;5073869;28;20456;-67
2023/05/31 01:31:47;;;;;;;2.17;1.98;;;24.80;53.10;;;;;;5073176;28;20162;-67
2023/05/31 01:34:14;;;;;;;2.30;2.10;;;24.70;53.00;;;;;;5073788;28;20095;-67
2023/05/31 01:36:41;;;;;;;2.15;1.92;;;24.80;53.10;;;;;;5073346;28;20052;-68
2023/05/31 01:39:11;;;;;;;2.53;1.90;;;24.80;53.10;;;;;;5074004;28;20045;-67
2023/05/31 01:41:43;;;;;;;2.73;1.93;;;24.70;53.00;;;;;;5073375;28;20049;-67
2023/05/31 01:44:13;;;;;;;2.70;2.10;;;24.70;53.00;;;;;;5072649;28;20056;-67
2023/05/31 01:46:42;;;;;;;2.97;1.92;;;24.70;53.10;;;;;;5072903;28;20084;-69
2023/05/31 01:49:10;;;;;;;1.97;1.87;;;24.70;53.10;;;;;;5072999;28;20110;-67
2023/05/31 01:51:39;;;;;;;2.40;2.05;;;24.70;53.10;;;;;;5073197;28;20305;-67
2023/05/31 01:54:06;;;;;;;2.22;2.05;;;24.70;53.10;;;;;;5066104;28;20496;-67
2023/05/31 01:56:36;;;;;;;1.85;1.73;;;24.70;53.10;;;;;;5052428;28;20091;-67
2023/05/31 01:59:06;;;;;;;3.22;2.25;;;24.70;53.10;;;;;;5053687;28;20548;-67
2023/05/31 02:01:33;;;;;;;2.45;2.22;;;24.70;53.10;;;;;;5052968;28;20136;-67
2023/05/31 02:04:01;;;;;;;2.50;2.30;;;24.70;53.10;;;;;;5051927;28;20098;-67
2023/05/31 02:06:28;;;;;;;2.20;2.08;;;24.70;53.10;;;;;;5051463;28;20110;-68
2023/05/31 02:08:55;;;;;;;2.13;2.00;;;24.70;53.10;;;;;;5053089;28;20147;-67
2023/05/31 02:11:23;;;;;;;2.80;2.20;;;24.70;53.10;;;;;;5053094;28;20048;-67
2023/05/31 02:13:50;;;;;;;2.90;2.38;;;24.70;53.10;;;;;;5053477;28;20053;-68
2023/05/31 02:16:17;;;;;;;2.45;2.08;;;24.70;53.10;;;;;;5053345;28;20056;-68
2023/05/31 02:18:44;;;;;;;2.17;2.00;;;24.70;53.10;;;;;;5064464;28;20045;-69
2023/05/31 02:21:12;;;;;;;2.42;2.17;;;24.70;53.10;;;;;;5073073;28;20059;-68
2023/05/31 02:23:39;;;;;;;2.58;2.25;;;24.70;53.10;;;;;;5062031;28;20055;-68
2023/05/31 02:26:06;;;;;;;2.30;2.10;;;24.70;53.10;;;;;;5053103;28;20528;-70
2023/05/31 02:28:33;;;;;;;2.70;2.50;;;24.70;53.10;;;;;;5053230;28;20481;-69
2023/05/31 02:31:00;;;;;;;2.28;1.95;;;24.70;53.10;;;;;;5053016;28;20049;-68
2023/05/31 02:33:29;;;;;;;2.45;2.25;;;24.70;53.10;;;;;;5069657;28;20134;-68
2023/05/31 02:35:59;;;;;;;2.72;2.25;;;24.70;53.10;;;;;;5072460;28;20053;-68
2023/05/31 02:38:26;;;;;;;2.50;2.30;;;24.70;53.10;;;;;;5072625;28;20041;-68
2023/05/31 02:40:53;;;;;;;3.00;2.70;;;24.70;53.10;;;;;;5073491;28;20118;-68
2023/05/31 02:43:20;;;;;;;2.33;2.13;;;24.70;53.10;;;;;;5073202;28;20052;-68
2023/05/31 02:45:48;;;;;;;2.58;2.38;;;24.70;53.10;;;;;;5072552;28;20055;-68
2023/05/31 02:48:15;;;;;;;2.65;2.45;;;24.70;53.10;;;;;;5072376;28;20476;-68
2023/05/31 02:50:42;;;;;;;2.25;2.03;;;24.70;53.00;;;;;;5072960;28;20098;-70
2023/05/31 02:53:09;;;;;;;2.83;2.50;;;24.70;53.00;;;;;;5072259;28;20083;-68
2023/05/31 02:55:40;;;;;;;2.63;2.42;;;24.70;53.00;;;;;;5071834;28;20056;-69
2023/05/31 02:58:07;;;;;;;2.65;2.10;;;24.70;53.00;;;;;;5072985;28;20041;-68
2023/05/31 03:00:34;;;;;;;2.35;2.15;;;24.70;53.00;;;;;;5072626;28;20118;-68
2023/05/31 03:03:02;;;;;;;2.88;2.33;;;24.70;53.00;;;;;;5072487;28;20048;-68
2023/05/31 03:05:29;;;;;;;2.38;2.17;;;24.70;53.00;;;;;;5072914;28;20054;-71
2023/05/31 03:07:56;;;;;;;2.50;2.30;;;24.70;53.00;;;;;;5055713;28;20064;-69
2023/05/31 03:10:24;;;;;;;2.47;2.28;;;24.70;53.00;;;;;;5052411;28;20049;-68
2023/05/31 03:12:51;;;;;;;2.85;2.40;;;24.70;53.00;;;;;;5052300;28;20057;-67
2023/05/31 03:15:20;;;;;;;2.30;2.10;;;24.70;52.90;;;;;;5052774;28;20079;-67
2023/05/31 03:17:47;;;;;;;1.90;1.80;;;24.70;52.90;;;;;;5052460;28;20076;-67
2023/05/31 03:20:14;;;;;;;2.42;2.20;;;24.70;52.90;;;;;;5053345;28;20084;-67
2023/05/31 03:22:42;;;;;;;2.25;2.08;;;24.70;52.90;;;;;;5058832;28;20057;-67
2023/05/31 03:25:09;;;;;;;2.50;2.30;;;24.70;52.90;;;;;;5076820;28;20055;-67
2023/05/31 03:27:36;;;;;;;2.35;1.73;;;24.70;52.90;;;;;;5076673;28;20063;-67
2023/05/31 03:30:06;;;;;;;2.42;2.22;;;24.70;52.90;;;;;;5076486;28;20045;-67
2023/05/31 03:32:33;;;;;;;3.00;2.30;;;24.70;52.80;;;;;;5076252;28;20044;-67
2023/05/31 03:35:03;;;;;;;2.45;2.10;;;24.70;52.80;;;;;;5075662;28;20049;-68
2023/05/31 03:37:30;;;;;;;2.50;2.30;;;24.70;52.80;;;;;;5075615;28;20048;-67
2023/05/31 03:39:57;;;;;;;2.38;2.17;;;24.70;52.80;;;;;;5075281;28;20076;-67
2023/05/31 03:42:25;;;;;;;2.30;2.10;;;24.70;52.80;;;;;;5075407;28;20055;-67
2023/05/31 03:44:52;;;;;;;3.38;2.38;;;24.70;52.80;;;;;;5075618;28;20128;-67
2023/05/31 03:47:19;;;;;;;2.58;2.22;;;24.70;52.80;;;;;;5075751;28;20083;-67
2023/05/31 03:49:46;;;;;;;2.40;2.20;;;24.70;52.80;;;;;;5075584;28;20119;-67
2023/05/31 03:52:13;;;;;;;2.83;2.35;;;24.70;52.80;;;;;;5075488;28;20094;-67
2023/05/31 03:54:41;;;;;;;2.28;2.05;;;24.70;52.80;;;;;;5075512;28;20048;-67
2023/05/31 03:57:08;;;;;;;2.30;2.15;;;24.70;52.80;;;;;;5075258;28;20052;-68
2023/05/31 03:59:35;;;;;;;2.65;2.40;;;24.70;52.80;;;;;;5075789;28;20044;-67
2023/05/31 04:02:03;;;;;;;2.20;1.90;;;24.70;52.80;;;;;;5075858;28;20055;-68
2023/05/31 04:04:31;;;;;;;2.22;2.03;;;24.70;52.80;;;;;;5076073;28;20052;-67
2023/05/31 04:06:58;;;;;;;4.10;2.55;;;24.70;52.80;;;;;;5075685;28;20056;-67
2023/05/31 04:09:25;;;;;;;2.67;2.15;;;24.70;52.80;;;;;;5073026;28;20065;-67
2023/05/31 04:11:56;;;;;;;2.50;2.30;;;24.70;52.80;;;;;;5075873;28;20410;-67
2023/05/31 04:14:23;;;;;;;2.47;2.20;;;24.70;52.80;;;;;;5075199;28;20056;-67
2023/05/31 04:16:50;;;;;;;2.30;2.10;;;24.70;52.80;;;;;;5074843;28;20087;-67
2023/05/31 04:19:17;;;;;;;2.20;2.03;;;24.70;52.80;;;;;;5075266;28;20044;-67
2023/05/31 04:21:45;;;;;;;2.22;1.88;;;24.70;52.80;;;;;;5073259;28;20036;-67
2023/05/31 04:24:12;;;;;;;2.40;2.20;;;24.70;52.80;;;;;;5074193;28;20415;-67
2023/05/31 04:26:39;;;;;;;2.95;2.75;;;24.70;52.80;;;;;;5074216;28;20053;-67
2023/05/31 04:29:06;;;;;;;2.60;2.28;;;24.70;52.80;;;;;;5074214;28;20128;-68
2023/05/31 04:31:36;;;;;;;2.38;2.17;;;24.70;52.80;;;;;;5073177;28;20052;-68
2023/05/31 04:34:18;;;;;;;2.25;1.98;;;24.70;52.80;;;;;;5072984;28;20451;-67
2023/05/31 04:36:51;;;;;;;2.53;2.33;;;24.70;52.70;;;;;;5073570;28;20074;-67
2023/05/31 04:39:21;;;;;;;3.80;2.30;;;24.70;52.70;;;;;;5068674;28;20051;-67
2023/05/31 04:41:49;;;;;;;2.20;2.00;;;24.70;52.70;;;;;;5074463;28;20511;-67
2023/05/31 04:44:16;;;;;;;2.75;2.55;;;24.70;52.70;;;;;;5074345;28;20095;-67
2023/05/31 04:46:43;;;;;;;2.30;2.08;;;24.70;52.70;;;;;;5073184;28;20053;-67
2023/05/31 04:49:11;;;;;;;4.60;2.75;;;24.70;52.70;;;;;;5070106;28;20408;-68
2023/05/31 04:51:38;;;;;;;2.50;2.30;;;24.70;52.70;;;;;;5074541;28;20048;-67
2023/05/31 04:54:05;;;;;;;3.33;2.58;;;24.70;52.70;;;;;;5073452;28;20048;-67
2023/05/31 04:56:33;;;;;;;3.45;3.08;;;24.70;52.70;;;;;;5072610;28;20044;-67
2023/05/31 04:59:00;;;;;;;2.85;2.60;;;24.70;52.60;;;;;;5074329;28;20076;-67
2023/05/31 05:01:28;;;;;;;3.53;2.50;;;24.70;52.60;;;;;;5072914;28;20044;-67
2023/05/31 05:03:55;;;;;;;2.95;2.65;;;24.70;52.60;;;;;;5069889;28;20045;-67
2023/05/31 05:06:22;;;;;;;4.07;2.53;;;24.60;52.50;;;;;;5069480;28;20139;-67
2023/05/31 05:08:49;;;;;;;2.78;2.47;;;24.70;52.50;;;;;;5073491;28;20049;-67
2023/05/31 05:11:16;;;;;;;3.33;2.97;;;24.70;52.50;;;;;;5074107;28;20087;-64
2023/05/31 05:13:43;;;;;;;3.47;2.88;;;24.70;52.50;;;;;;5070229;28;20048;-61
2023/05/31 05:16:11;;;;;;;2.75;2.40;;;24.70;52.50;;;;;;5064585;28;20102;-67
2023/05/31 05:18:40;;;;;;;5.10;2.72;;;24.70;52.80;;;;;;5070488;28;20060;-63
2023/05/31 05:21:07;;;;;;;4.70;3.13;;;24.70;53.30;;;;;;5071579;28;20048;-63
2023/05/31 05:23:37;;;;;;;3.35;2.90;;;24.70;52.60;;;;;;5058124;28;20115;-63
2023/05/31 05:26:04;;;;;;;3.10;2.60;;;24.70;52.50;;;;;;5064779;28;20052;-67
2023/05/31 05:28:31;;;;;;;3.63;2.88;;;24.70;52.60;;;;;;5073440;28;20044;-63
2023/05/31 05:30:59;;;;;;;7.07;3.30;;;24.70;52.60;;;;;;5066442;28;20535;-62
2023/05/31 05:33:28;;;;;;;3.53;2.70;;;24.70;52.60;;;;;;5068875;28;20441;-62
2023/05/31 05:35:55;;;;;;;3.03;2.75;;;24.80;52.60;;;;;;5068088;28;20471;-66
2023/05/31 05:38:23;;;;;;;7.70;3.15;;;24.80;52.50;;;;;;5067400;28;20055;-70
2023/05/31 05:40:50;;;;;;;4.38;3.20;;;24.80;52.40;;;;;;5047681;28;20048;-66
2023/05/31 05:43:18;;;;;;;8.18;3.20;;;24.80;52.40;;;;;;5063264;28;20048;-65
2023/05/31 05:45:45;;;;;;;4.93;3.90;;;24.90;52.40;;;;;;5063147;28;20048;-63
2023/05/31 05:48:13;;;;;;;5.30;3.28;;;24.90;52.30;;;;;;5062183;28;20041;-67
2023/05/31 05:50:41;;;;;;;4.03;3.63;;;24.90;52.30;;;;;;5058249;28;20477;-68
2023/05/31 05:53:08;;;;;;;4.57;3.47;;;24.90;52.30;;;;;;5061491;28;20409;-63
2023/05/31 05:55:36;;;;;;;6.53;3.38;;;24.90;52.30;;;;;;5065161;28;20581;-62
2023/05/31 05:58:03;;;;;;;7.97;4.60;;;24.90;52.30;;;;;;5060699;28;20053;-61
2023/05/31 06:00:31;;;;;;;6.80;3.88;;;24.90;52.40;;;;;;5064728;28;20474;-62
2023/05/31 06:02:58;;;;;;;5.70;4.10;;;24.90;52.70;;;;;;5067136;28;20047;-60
2023/05/31 06:05:26;;;;;;;13.40;4.53;;;24.90;52.80;;;;;;5063787;28;21303;-60
2023/05/31 06:07:54;;;;;;;13.50;3.85;;;24.90;52.90;;;;;;5047659;28;20067;-60
2023/05/31 06:10:22;;;;;;;7.85;4.07;;;25.00;53.10;;;;;;5062430;28;20057;-58
2023/05/31 06:12:49;;;;;;;11.52;4.07;;;25.00;53.10;;;;;;5064906;28;20040;-60
2023/05/31 06:15:16;;;;;;;10.45;4.60;;;25.00;53.00;;;;;;5062839;28;20158;-60
2023/05/31 06:17:43;;;;;;;5.50;4.25;;;25.10;52.80;;;;;;5061340;28;20040;-61
2023/05/31 06:20:12;;;;;;;7.43;4.13;;;25.10;53.00;;;;;;5057138;28;20044;-59
2023/05/31 06:22:39;;;;;;;6.70;4.40;;;25.10;53.00;;;;;;5059788;28;20052;-60
2023/05/31 06:25:07;;;;;;;6.00;4.18;;;25.10;52.80;;;;;;5057490;28;20052;-59
2023/05/31 06:27:34;;;;;;;6.13;4.00;;;25.10;53.20;;;;;;5061373;28;20537;-61
2023/05/31 06:30:02;;;;;;;8.05;4.40;;;25.20;52.20;;;;;;5043963;28;20041;-62
2023/05/31 06:32:30;;;;;;;6.15;4.03;;;25.10;52.20;;;;;;5058386;28;20416;-61
2023/05/31 06:34:58;;;;;;;6.18;4.15;;;25.20;52.20;;;;;;5061207;28;20128;-60
2023/05/31 06:37:25;;;;;;;7.38;4.50;;;25.30;52.10;;;;;;5064026;28;20091;-58
2023/05/31 06:39:53;;;;;;;14.82;5.10;;;25.30;52.10;;;;;;5059528;28;20135;-61
2023/05/31 06:42:21;;;;;;;9.07;4.18;;;25.30;51.80;;;;;;5063746;28;20512;-61
2023/05/31 06:44:50;;;;;;;8.32;4.28;;;25.40;51.90;;;;;;5064732;28;20191;-58
2023/05/31 06:47:23;;;;;;;8.98;5.15;;;25.40;52.00;;;;;;5066095;28;20097;-60
2023/05/31 06:49:50;;;;;;;10.50;5.38;;;25.40;52.40;;;;;;5061558;28;20188;-61
2023/05/31 06:52:17;;;;;;;6.90;5.15;;;25.30;52.50;;;;;;5066438;28;20056;-62
2023/05/31 06:54:45;;;;;;;13.90;5.53;;;25.30;52.80;;;;;;5067744;28;20049;-61
2023/05/31 06:57:12;;;;;;;9.13;4.40;;;25.40;52.50;;;;;;5068129;28;20137;-61
2023/05/31 06:59:39;;;;;;;9.18;4.40;;;25.40;52.50;;;;;;5065092;28;20500;-63
2023/05/31 07:02:07;;;;;;;6.80;5.03;;;25.50;52.10;;;;;;5068108;28;20045;-63
2023/05/31 07:04:34;;;;;;;6.47;4.00;;;25.50;52.30;;;;;;5065524;28;20048;-63
2023/05/31 07:07:03;;;;;;;10.40;4.93;;;25.50;52.60;;;;;;5066323;28;20057;-60
2023/05/31 07:09:30;;;;;;;9.52;4.90;;;25.40;52.90;;;;;;5066192;28;20495;-62
2023/05/31 07:12:01;;;;;;;11.77;5.03;;;25.30;52.70;;;;;;5070849;28;20094;-62
2023/05/31 07:14:29;;;;;;;4.90;4.30;;;25.30;52.30;;;;;;5060173;28;20095;-61
2023/05/31 07:16:56;;;;;;;10.88;4.40;;;25.30;52.10;;;;;;5065323;28;20066;-60
2023/05/31 07:19:24;;;;;;;8.65;4.82;;;25.20;52.10;;;;;;5071101;28;20129;-60
2023/05/31 07:21:51;;;;;;;6.25;4.63;;;25.20;52.20;;;;;;5068299;28;20500;-62
2023/05/31 07:24:18;;;;;;;10.43;4.68;;;25.20;52.40;;;;;;5066287;28;20040;-62
2023/05/31 07:26:45;;;;;;;9.35;5.25;;;25.20;52.40;;;;;;5070465;28;20044;-61
2023/05/31 07:29:12;;;;;;;8.15;4.22;;;25.10;52.30;;;;;;5061180;28;20055;-61
2023/05/31 07:31:39;;;;;;;10.25;4.35;;;25.10;52.40;;;;;;5067519;28;20469;-61
2023/05/31 07:34:09;;;;;;;8.95;4.88;;;25.10;52.10;;;;;;5064710;28;20098;-62
2023/05/31 07:36:37;;;;;;;6.15;3.97;;;25.10;51.80;;;;;;5067665;28;20091;-63
2023/05/31 07:39:05;;;;;;;6.20;3.88;;;25.10;51.40;;;;;;5066644;28;20125;-60
2023/05/31 07:41:33;;;;;;;7.80;4.40;;;25.10;51.30;;;;;;5065534;28;20048;-63
2023/05/31 07:44:01;;;;;;;6.22;4.03;;;25.10;51.00;;;;;;5070718;28;20413;-59
2023/05/31 07:46:28;;;;;;;5.47;3.88;;;25.10;51.10;;;;;;5070453;28;20526;-60
2023/05/31 07:48:55;;;;;;;5.40;3.72;;;25.10;50.90;;;;;;5071413;28;21390;-61
2023/05/31 07:51:23;;;;;;;6.20;4.25;;;25.30;50.90;;;;;;5067976;28;20147;-60
2023/05/31 07:53:51;;;;;;;7.00;3.78;;;25.40;49.90;;;;;;5068375;28;20080;-60
2023/05/31 07:56:18;;;;;;;12.25;4.20;;;25.40;49.60;;;;;;5049520;28;20098;-59
2023/05/31 07:58:45;;;;;;;6.75;4.07;;;25.40;49.10;;;;;;5066893;28;20052;-60
2023/05/31 08:01:13;;;;;;;7.72;3.40;;;25.40;49.50;;;;;;5050020;28;20052;-61
2023/05/31 08:03:41;;;;;;;6.18;3.92;;;25.50;49.50;;;;;;5066122;28;20084;-59
2023/05/31 08:06:09;;;;;;;6.50;4.00;;;25.60;48.90;;;;;;5070313;28;20048;-61
2023/05/31 08:08:37;;;;;;;10.70;4.10;;;25.60;49.10;;;;;;5067927;28;20045;-60
2023/05/31 08:11:04;;;;;;;5.47;3.40;;;25.70;49.50;;;;;;5067154;28;20492;-61
2023/05/31 08:13:32;;;;;;;7.80;4.45;;;25.70;49.30;;;;;;5065221;28;20052;-60
2023/05/31 08:15:59;;;;;;;7.13;4.05;;;25.80;49.20;;;;;;5062758;28;20044;-60
2023/05/31 08:18:26;;;;;;;7.50;3.97;;;25.80;49.20;;;;;;5067232;28;20053;-60
2023/05/31 08:20:54;;;;;;;6.97;4.10;;;25.90;49.40;;;;;;5064990;28;20086;-59
2023/05/31 08:23:22;;;;;;;8.43;4.10;;;26.00;49.40;;;;;;5067961;28;20527;-59
2023/05/31 08:25:50;;;;;;;8.60;4.72;;;26.00;49.50;;;;;;5049180;28;20503;-59
2023/05/31 08:28:18;;;;;;;10.88;4.57;;;26.10;47.60;;;;;;5063788;28;20051;-59
2023/05/31 08:30:45;;;;;;;6.28;4.10;;;26.00;46.90;;;;;;5066917;28;20127;-62
2023/05/31 08:33:13;;;;;;;6.80;3.50;;;26.00;47.00;;;;;;5066667;28;20055;-60
2023/05/31 08:35:40;;;;;;;4.25;3.28;;;26.10;47.50;;;;;;5065890;28;20415;-62
2023/05/31 08:38:07;;;;;;;5.13;3.65;;;26.00;46.10;;;;;;5066663;28;20049;-61
2023/05/31 08:40:36;;;;;;;4.60;3.53;;;25.90;46.20;;;;;;5065399;28;20101;-60
2023/05/31 08:43:15;;;;;;;9.10;3.70;;;25.90;46.40;;;;;;5066808;28;20473;-61
2023/05/31 08:45:43;;;;;;;8.25;3.92;;;25.90;46.80;;;;;;5065106;28;20041;-61
2023/05/31 08:48:23;;;;;;;10.90;3.42;;;25.90;46.70;;;;;;5070215;28;20055;-62
2023/05/31 08:50:51;;;;;;;7.37;3.90;;;26.00;47.00;;;;;;5067571;28;20052;-63
2023/05/31 08:53:33;;;;;;;7.07;3.92;;;26.00;46.80;;;;;;5061956;28;20056;-60
2023/05/31 08:56:01;;;;;;;8.38;3.67;;;26.10;47.10;;;;;;5064824;28;20036;-61
2023/05/31 08:58:29;;;;;;;7.15;4.30;;;26.10;47.40;;;;;;5067531;28;20135;-63
2023/05/31 09:00:58;;;;;;;11.00;5.15;;;26.20;47.60;;;;;;5058157;28;20036;-63
2023/05/31 09:03:25;;;;;;;9.40;3.92;;;26.30;48.00;;;;;;5067720;28;20052;-62
2023/05/31 09:05:55;;;;;;;6.78;3.88;;;26.30;47.40;;;;;;5064949;28;20056;-61
2023/05/31 09:08:23;;;;;;;11.02;4.50;;;26.30;48.00;;;;;;5061725;28;20496;-61
2023/05/31 09:10:50;;;;;;;8.95;4.75;;;26.40;47.90;;;;;;5065416;28;20044;-63
2023/05/31 09:13:18;;;;;;;6.93;4.80;;;26.40;47.80;;;;;;5068082;28;20051;-62
2023/05/31 09:15:48;;;;;;;10.65;4.53;;;26.50;47.60;;;;;;5068606;28;20099;-62
2023/05/31 09:18:19;;;;;;;7.20;4.25;;;26.50;47.30;;;;;;5067488;28;20082;-61
2023/05/31 09:20:52;;;;;;;7.15;4.00;;;26.50;47.20;;;;;;5064118;28;20131;-63
2023/05/31 09:23:19;;;;;;;6.80;4.30;;;26.50;47.30;;;;;;5062534;28;20123;-61
2023/05/31 09:25:49;;;;;;;6.80;3.90;;;26.50;46.70;;;;;;5068371;28;20060;-59
2023/05/31 09:28:22;;;;;;;15.25;4.50;;;26.50;47.20;;;;;;5067954;28;20041;-61
2023/05/31 09:31:07;;;;;;;15.05;4.13;;;26.50;47.70;;;;;;5066211;28;20106;-62
2023/05/31 09:33:40;;;;;;;10.85;3.42;;;26.50;47.80;;;;;;5064700;28;20509;-61
2023/05/31 09:36:08;;;;;;;11.05;4.75;;;26.50;47.60;;;;;;5065827;28;20040;-61
2023/05/31 09:38:37;;;;;;;6.43;3.17;;;26.50;47.60;;;;;;5067044;28;20058;-62
2023/05/31 09:41:17;;;;;;;9.05;3.75;;;26.60;48.30;;;;;;5061613;28;20068;-62
2023/05/31 09:43:47;;;;;;;6.18;3.47;;;26.60;47.70;;;;;;5066085;28;20048;-62
2023/05/31 09:46:21;;;;;;;7.85;3.95;;;26.60;47.40;;;;;;5062188;28;20058;-61
2023/05/31 09:49:00;;;;;;;9.02;3.92;;;26.60;47.20;;;;;;5057526;28;20058;-65
2023/05/31 09:51:28;;;;;;;4.55;3.47;;;26.70;47.40;;;;;;5063692;28;20495;-63
2023/05/31 09:53:55;;;;;;;10.93;3.60;;;26.70;47.60;;;;;;5060574;28;20084;-67
2023/05/31 09:56:27;;;;;;;5.10;3.50;;;26.70;47.10;;;;;;5065744;28;20060;-64
2023/05/31 09:58:57;;;;;;;9.77;3.75;;;26.70;47.30;;;;;;5064473;28;20455;-63
2023/05/31 10:01:25;;;;;;;7.88;3.50;;;26.80;47.20;;;;;;5054987;28;20522;-61
2023/05/31 10:03:53;;;;;;;5.55;3.88;;;26.80;47.10;;;;;;5061524;28;20092;-61
2023/05/31 10:06:21;;;;;;;4.72;3.83;;;26.80;46.70;;;;;;5067478;28;20098;-65
2023/05/31 10:08:50;;;;;;;7.30;3.70;;;26.80;46.60;;;;;;5066683;28;20078;-61
2023/05/31 10:11:25;;;;;;;7.03;3.80;;;26.80;46.50;;;;;;5061941;28;20048;-59
2023/05/31 10:13:59;;;;;;;12.15;4.88;;;26.80;46.60;;;;;;5065843;28;20497;-63
2023/05/31 10:16:54;;;;;;;4.95;3.92;;;26.90;46.70;;;;;;5060567;28;20454;-62
2023/05/31 10:19:31;;;;;;;8.15;4.10;;;26.90;46.30;;;;;;5065097;28;20053;-59
2023/05/31 10:22:00;;;;;;;6.90;3.65;;;27.00;46.50;;;;;;5066750;28;20060;-60
2023/05/31 10:24:37;;;;;;;7.18;3.20;;;27.00;46.20;;;;;;5069187;28;20040;-59
2023/05/31 10:27:16;;;;;;;7.15;3.55;;;26.90;46.50;;;;;;5052476;28;20116;-62
2023/05/31 10:29:49;;;;;;;7.85;3.80;;;26.90;46.30;;;;;;5064596;28;20094;-61
2023/05/31 10:32:22;;;;;;;6.68;3.70;;;26.90;46.40;;;;;;5065592;28;20467;-61
2023/05/31 10:34:50;;;;;;;5.20;4.28;;;26.90;46.30;;;;;;5067915;28;20080;-61
2023/05/31 10:37:18;;;;;;;3.92;3.35;;;26.90;46.30;;;;;;5067730;28;20050;-60
2023/05/31 10:40:12;;;;;;;5.07;4.00;;;26.90;47.00;;;;;;5067736;28;20044;-60
2023/05/31 10:42:56;;;;;;;4.07;3.67;;;26.90;46.30;;;;;;5067625;28;20082;-60
2023/05/31 10:45:28;;;;;;;4.38;3.15;;;26.90;46.70;;;;;;5066267;28;20052;-61
2023/05/31 10:48:23;;;;;;;4.07;3.03;;;26.90;46.70;;;;;;5065194;28;20045;-61
2023/05/31 10:50:57;;;;;;;4.57;2.88;;;27.00;46.70;;;;;;5062669;28;20064;-63
2023/05/31 10:53:34;;;;;;;7.95;4.03;;;27.00;46.90;;;;;;5066507;28;20450;-63
2023/05/31 10:56:13;;;;;;;6.22;4.03;;;27.00;46.20;;;;;;5065095;28;20127;-61
2023/05/31 10:58:43;;;;;;;8.52;3.80;;;26.90;46.10;;;;;;5061312;28;20061;-62
2023/05/31 11:01:18;;;;;;;9.95;4.15;;;27.00;45.90;;;;;;5062619;28;20052;-62
2023/05/31 11:03:52;;;;;;;6.90;3.80;;;27.00;45.90;;;;;;5066188;28;20160;-64
2023/05/31 11:06:30;;;;;;;9.18;4.13;;;27.10;46.10;;;;;;5059182;28;20040;-61
2023/05/31 11:09:12;;;;;;;6.30;3.65;;;27.00;45.90;;;;;;5066714;28;20049;-61
2023/05/31 11:11:50;;;;;;;7.38;3.50;;;27.00;45.90;;;;;;5062611;28;20040;-62
2023/05/31 11:14:27;;;;;;;3.63;3.03;;;27.10;46.00;;;;;;5061957;28;20045;-61
2023/05/31 11:17:15;;;;;;;6.82;4.25;;;27.10;45.90;;;;;;5066575;28;20048;-63
2023/05/31 11:19:50;;;;;;;10.88;4.10;;;27.10;45.30;;;;;;5063942;28;20046;-61
2023/05/31 11:22:24;;;;;;;8.52;3.88;;;27.10;45.30;;;;;;5062478;28;20044;-61
2023/05/31 11:24:58;;;;;;;6.05;3.92;;;27.10;45.40;;;;;;5064612;28;20049;-62
2023/05/31 11:27:39;;;;;;;8.82;3.92;;;27.20;45.40;;;;;;5063870;28;20049;-61
2023/05/31 11:30:08;;;;;;;5.90;3.85;;;27.10;45.40;;;;;;5067400;28;20040;-62
2023/05/31 11:32:55;;;;;;;8.52;3.80;;;27.20;45.40;;;;;;5063677;28;20444;-60
2023/05/31 11:35:24;;;;;;;4.97;3.33;;;27.20;45.20;;;;;;5062991;28;20385;-60
2023/05/31 11:37:59;;;;;;;9.90;3.80;;;27.30;45.00;;;;;;5058039;28;20122;-63
2023/05/31 11:40:28;;;;;;;6.97;3.50;;;27.30;45.20;;;;;;5059247;28;20135;-63
2023/05/31 11:43:03;;;;;;;5.88;3.50;;;27.30;45.20;;;;;;5062594;28;20053;-63
2023/05/31 11:45:34;;;;;;;7.00;3.47;;;27.40;45.20;;;;;;5067942;28;20090;-63
2023/05/31 11:48:24;;;;;;;5.85;3.70;;;27.40;45.30;;;;;;5066642;28;20075;-64
2023/05/31 11:50:53;;;;;;;8.27;3.97;;;27.50;45.20;;;;;;5069642;28;20485;-64
2023/05/31 11:53:21;;;;;;;7.90;3.95;;;27.50;44.60;;;;;;5070538;28;20516;-63
2023/05/31 11:55:49;;;;;;;7.75;3.75;;;27.50;44.60;;;;;;5068199;28;20045;-64
2023/05/31 11:58:23;;;;;;;10.55;4.35;;;27.40;44.40;;;;;;5065408;28;20080;-63
2023/05/31 12:00:50;;;;;;;8.93;4.30;;;27.40;44.90;;;;;;5067080;28;20500;-64
2023/05/31 12:03:20;;;;;;;5.15;4.32;;;27.40;45.20;;;;;;5067212;28;20052;-61
2023/05/31 12:05:51;;;;;;;;;;;27.40;44.70;;;;;;5067444;28;20493;-61
2023/05/31 12:08:18;;;;;;;5.43;3.50;;;27.40;44.70;;;;;;5064860;28;19972;-64
2023/05/31 12:10:45;;;;;;;7.13;3.75;;;27.30;44.40;;;;;;5066099;28;20040;-62
2023/05/31 12:13:17;;;;;;;5.65;3.83;;;27.30;44.50;;;;;;5066219;28;20133;-62
2023/05/31 12:15:55;;;;;;;6.40;3.70;;;27.30;43.90;;;;;;5065026;28;20048;-62
2023/05/31 12:18:23;;;;;;;11.77;4.07;;;27.30;43.80;;;;;;5065967;28;20063;-63
2023/05/31 12:20:50;;;;;;;6.70;4.20;;;27.30;43.60;;;;;;5070943;28;20053;-67
2023/05/31 12:23:18;;;;;;;8.48;4.15;;;27.30;43.70;;;;;;5067025;28;20052;-64
2023/05/31 12:25:47;;;;;;;6.68;3.75;;;27.30;43.90;;;;;;5067157;28;20045;-65
2023/05/31 12:28:24;;;;;;;12.18;4.10;;;27.30;43.40;;;;;;5070360;28;20096;-63
2023/05/31 12:30:51;;;;;;;10.20;3.67;;;27.30;43.50;;;;;;5080542;28;20473;-63
2023/05/31 12:33:19;;;;;;;5.75;3.60;;;27.30;43.40;;;;;;5070452;28;20044;-61
2023/05/31 12:35:48;;;;;;;10.07;4.15;;;27.30;43.80;;;;;;5070724;28;20132;-61
2023/05/31 12:38:16;;;;;;;4.10;3.38;;;27.30;44.10;;;;;;5069790;28;20071;-62
2023/05/31 12:40:44;;;;;;;6.85;3.30;;;27.40;44.20;;;;;;5071148;28;20072;-62
2023/05/31 12:43:14;;;;;;;7.18;3.70;;;27.40;44.40;;;;;;5075301;28;20040;-62
2023/05/31 12:45:42;;;;;;;7.47;3.60;;;27.40;44.50;;;;;;5070947;28;20051;-62
2023/05/31 12:48:10;;;;;;;4.28;3.55;;;27.40;44.70;;;;;;5070466;28;20501;-62
2023/05/31 12:50:45;;;;;;;7.35;3.53;;;27.40;44.90;;;;;;5072250;28;20055;-61
2023/05/31 12:53:13;;;;;;;6.95;3.10;;;27.40;45.00;;;;;;5069900;28;20049;-61
2023/05/31 12:55:49;;;;;;;8.35;3.30;;;27.40;45.10;;;;;;5068206;28;20097;-63
2023/05/31 12:58:19;;;;;;;6.45;3.90;;;27.40;45.00;;;;;;5062237;28;20083;-62